Airfield :
LOGIN :

Register | Disclaimer

   EN    FR    IT 

 










Legend :    VFR   Marginal VFR   IFR   Intensive IFR   Very Intensive IFR
Visi :
Ceiling :
>= 8 km
>= 3000ft
5 to 8 km
1000 to 3000 ft
1500m to 5 km
500 to 1000 ft
800 to 1500m
200 to 500 ft
< 800m
< 200 ft
Symbols :   Thunderstorms  Fog  Heavy snow  Heavy precipitations  Wind > 20 kt
SIGMETs :     Misc.  Thunderstorms  Icing  Turbulence  Mountain Waves  Volcanic Ashes






- Airport Elevation : 80 ft
- IATA code : LPL


EGGP - Liverpool John Lennon

CURRENT METAR :
  • 010220Z AUTO 28007KT 9999 OVC040/// 07/05 Q1027

EXPIRED METARs :
  • 010150Z AUTO 28007KT 9999 OVC043/// 06/05 Q1028
  • 010120Z AUTO 28008KT 9999 OVC041/// 07/06 Q1028
  • 010050Z AUTO 27007KT 9999 OVC044/// 07/06 Q1028
  • 010020Z AUTO 29007KT 9999 OVC045/// 07/06 Q1029
  • 312350Z AUTO 29007KT 9999 OVC045/// 08/06 Q1029

TAF TAF EGGP
Valid from the 01 at 00:00 until the 02 at 00:00 UTC


312301Z 0100/0124 25005KT 9999 BKN035
BECMG 0108/0111 31011KT
PROB30
TEMPO 0109/0118 8000 -SHRA
BECMG 0121/0124 BKN014
ATIS : +44 151 907 2000 (option 5 or ext 5150)
Met : +44 871 750 5150



MET'MAP, your aeronautical weather chart ! - Copyright ORBIFLY December 2007 - Disclaimer

ORBIFLY MET'MAP TEAM :

Programming & Development : Alexandra Zaïnal
Concept & original design : Baudouin d'Aumeries
Assistance for programming : Marc-Olivier Méhu
Technical & hardware support : Manuel Goepfert

Contact : metmap@orbifly.com




SOURCES & CREDITS :

   NOAA